Share

Yangon, Myanmar

Yangon International (VYYY) Elev 108 ft | 16.91 °N, 96.14 °E | Change Station

Current weather conditions updated 1 hour ago

Clear
Clear
81 °F
Feels Like 86 °F
N
4
Wind Variable Wind from SW
Sunrise 5:47 AM
Sunset 6:22 PM
Moon Waning Gibbous

Today is forecast to be Warmer than yesterday.

Pressure 29.80 in
Visibility 4.3 miles
Clouds
Heat Index 86 °F
Dew Point 75 °F
Humidity 84%
Rainfall 0.00 in
Snow Depth Not available.
UV Not available.
Pollen Not available.
Air Quality Not available.
Flu Activity Not available.
METAR VYYY 181900Z 23003KT 7000 NSC 27/24 Q1009

More Conditions Fewer Conditions

Pressure 29.80 in
Visibility 4.3 miles
Clouds
Heat Index 86 °F
Dew Point 75 °F
Humidity 84%
Rainfall 0.00 in
Snow Depth Not available.
UV Not available.
Pollen Not available.
Air Quality Not available.
Flu Activity Not available.
METAR VYYY 181900Z 23003KT 7000 NSC 27/24 Q1009

More Conditions Fewer Conditions

10-Day Weather Forecast

Almanac

Astronomy

Apr. 19, 2014 Rise Set
Actual Time 5:47 AM MMT 6:22 PM MMT
Civil Twilight 5:25 AM MMT 6:44 PM MMT
Nautical Twilight 4:59 AM MMT 7:10 PM MMT
Astronomical Twilight 4:33 AM MMT 7:36 PM MMT
Moon 10:15 PM MMT (4/19) 8:55 AM MMT (4/19)
Length of Visible Light 13h 18m
Length of Day
12h 34m
Tomorrow will be 0m 54s longer.
Waning Gibbous, 85% of the Moon is Illuminated
Apr 18
Waning Gibbous
Apr 22
Last Quarter
Apr 29
New
May 6
First Quarter
May 14
Full

Yesterday's Extremes

Country Highs Country Lows

Community

  • What's for Lunch?
    What's for Lunch?
  • SUNRISE THROUGH THE TREES.
    SUNRISE THROUGH THE TREES.
  • Dog Wood Blossoms
    Dog Wood Blossoms
  • Morning Light
    Morning Light
  • New Day
    New Day

WunderPhotos

Upload Photos

1,702,495 photos uploaded!

WunderBlogs® & News

Nearby

Snow Depth

Not available.

Coastal Water Temperatures

Place Temperature
No Stations Reporting

Earthquake Activity

City Distance Mag. Time & Date
No recent earthquake activity has been reported nearby.
Minimum magnitude displayed is 2.5.

Nearby Weather Stations

There are no personal weather stations in this area.

What do you think?

We're not finished. Please let us know what you like, what you don't like, and what you are still missing.